createdAt,value
2017-09-24T00:01:18.076Z,11.60
2017-09-24T00:03:45.644Z,11.57
2017-09-24T00:06:13.204Z,11.53
2017-09-24T00:08:40.821Z,11.48
2017-09-24T00:11:08.378Z,11.43
2017-09-24T00:13:35.989Z,11.41
2017-09-24T00:16:03.543Z,11.40
2017-09-24T00:18:31.881Z,11.38
2017-09-24T00:20:59.833Z,11.33
2017-09-24T00:23:27.434Z,11.22
2017-09-24T00:25:54.996Z,11.12
2017-09-24T00:28:22.981Z,11.03
2017-09-24T00:30:50.526Z,10.97
2017-09-24T00:33:18.411Z,10.95
2017-09-24T00:35:45.973Z,10.95
2017-09-24T00:38:13.516Z,10.95
2017-09-24T00:40:41.092Z,10.92
2017-09-24T00:43:08.663Z,10.91
2017-09-24T00:45:36.231Z,10.92
2017-09-24T00:48:03.781Z,10.92
2017-09-24T00:50:31.372Z,10.92
2017-09-24T00:52:58.930Z,10.91
2017-09-24T00:55:26.518Z,10.88
2017-09-24T00:57:54.081Z,10.85
2017-09-24T01:00:21.982Z,10.83
2017-09-24T01:02:49.532Z,10.80
2017-09-24T01:05:17.084Z,10.76
2017-09-24T01:07:44.662Z,10.72
2017-09-24T01:10:12.222Z,10.70
2017-09-24T01:12:39.817Z,10.70
2017-09-24T01:15:07.363Z,10.68
2017-09-24T01:17:35.411Z,10.62
2017-09-24T01:20:02.962Z,10.56
2017-09-24T01:22:30.505Z,10.56
2017-09-24T01:24:58.085Z,10.57
2017-09-24T01:27:25.658Z,10.57
2017-09-24T01:29:53.521Z,10.57
2017-09-24T01:32:21.082Z,10.55
2017-09-24T01:34:49.054Z,10.53
2017-09-24T01:37:16.778Z,10.49
2017-09-24T01:39:44.337Z,10.46
2017-09-24T01:42:11.920Z,10.48
2017-09-24T01:44:39.531Z,10.51
2017-09-24T01:47:07.135Z,10.53
2017-09-24T01:49:34.699Z,10.51
2017-09-24T01:52:02.279Z,10.49
2017-09-24T01:54:29.836Z,10.48
2017-09-24T01:56:57.428Z,10.46
2017-09-24T01:59:24.977Z,10.42
2017-09-24T02:01:52.932Z,10.39
2017-09-24T02:04:20.475Z,10.35
2017-09-24T02:06:48.036Z,10.29
2017-09-24T02:09:16.954Z,10.29
2017-09-24T02:11:44.533Z,10.30
2017-09-24T02:14:12.100Z,10.31
2017-09-24T02:16:39.652Z,10.32
2017-09-24T02:19:07.239Z,10.30
2017-09-24T02:21:34.778Z,10.29
2017-09-24T02:24:02.355Z,10.29
2017-09-24T02:26:29.896Z,10.26
2017-09-24T02:28:57.537Z,10.25
2017-09-24T02:31:25.369Z,10.25
2017-09-24T02:33:52.941Z,10.24
2017-09-24T02:36:21.314Z,10.21
2017-09-24T02:38:49.155Z,10.22
2017-09-24T02:41:16.698Z,10.24
2017-09-24T02:43:44.271Z,10.25
2017-09-24T02:46:11.872Z,10.23
2017-09-24T02:48:39.849Z,10.20
2017-09-24T02:51:07.401Z,10.20
2017-09-24T02:53:34.997Z,10.22
2017-09-24T02:56:02.593Z,10.23
2017-09-24T02:58:30.126Z,10.22
2017-09-24T03:00:57.693Z,10.16
2017-09-24T03:03:25.297Z,10.15
2017-09-24T03:05:52.905Z,10.14
2017-09-24T03:08:20.588Z,10.14
2017-09-24T03:10:48.500Z,10.15
2017-09-24T03:13:16.043Z,10.15
2017-09-24T03:15:43.593Z,10.15
2017-09-24T03:18:11.550Z,10.15
2017-09-24T03:20:39.224Z,10.12
2017-09-24T03:23:06.797Z,10.10
2017-09-24T03:25:34.379Z,10.09
2017-09-24T03:28:03.242Z,10.08
2017-09-24T03:30:31.292Z,10.09
2017-09-24T03:32:58.841Z,10.09
2017-09-24T03:35:26.704Z,10.09
2017-09-24T03:37:54.241Z,10.08
2017-09-24T03:40:21.756Z,10.07
2017-09-24T03:42:49.795Z,10.07
2017-09-24T03:45:17.368Z,10.02
2017-09-24T03:47:45.332Z,9.94
2017-09-24T03:50:12.896Z,9.84
2017-09-24T03:52:40.503Z,9.83
2017-09-24T03:55:08.062Z,9.85
2017-09-24T03:57:35.646Z,9.87
2017-09-24T04:00:03.339Z,9.89
2017-09-24T04:02:30.880Z,9.88
2017-09-24T04:04:58.788Z,9.87
2017-09-24T04:07:26.339Z,9.84
2017-09-24T04:09:53.900Z,9.83
2017-09-24T04:12:21.471Z,9.82
2017-09-24T04:14:49.029Z,9.83
2017-09-24T04:17:16.588Z,9.80
2017-09-24T04:19:44.255Z,9.79
2017-09-24T04:22:11.822Z,9.75
2017-09-24T04:24:39.360Z,9.74
2017-09-24T04:27:06.928Z,9.72
2017-09-24T04:29:34.478Z,9.69
2017-09-24T04:32:02.045Z,9.67
2017-09-24T04:34:29.611Z,9.65
2017-09-24T04:36:57.151Z,9.62
2017-09-24T04:39:24.687Z,9.59
2017-09-24T04:41:52.222Z,9.57
2017-09-24T04:44:20.198Z,9.57
2017-09-24T04:46:48.540Z,9.56
2017-09-24T04:49:16.093Z,9.54
2017-09-24T04:51:43.660Z,9.49
2017-09-24T04:54:11.227Z,9.46
2017-09-24T04:56:38.803Z,9.47
2017-09-24T04:59:06.352Z,9.44
2017-09-24T05:01:33.927Z,9.44
2017-09-24T05:04:01.481Z,9.44
2017-09-24T05:06:29.446Z,9.43
2017-09-24T05:08:57.005Z,9.40
2017-09-24T05:11:24.566Z,9.37
2017-09-24T05:13:52.207Z,9.34
2017-09-24T05:16:19.821Z,9.36
2017-09-24T05:18:47.386Z,9.35
2017-09-24T05:21:14.951Z,9.33
2017-09-24T05:23:42.877Z,9.31
2017-09-24T05:26:10.415Z,9.26
2017-09-24T05:28:39.342Z,9.16
2017-09-24T05:31:06.913Z,9.15
2017-09-24T05:33:34.474Z,9.17
2017-09-24T05:36:02.071Z,9.13
2017-09-24T05:38:29.622Z,9.08
2017-09-24T05:40:57.519Z,9.10
2017-09-24T05:43:25.092Z,9.13
2017-09-24T05:45:52.660Z,9.18
2017-09-24T05:48:20.228Z,9.30
2017-09-24T05:50:47.822Z,9.33
2017-09-24T05:53:15.415Z,9.34
2017-09-24T05:55:42.977Z,9.32
2017-09-24T05:58:10.850Z,9.29
2017-09-24T06:00:38.440Z,9.28
2017-09-24T06:03:06.007Z,9.31
2017-09-24T06:05:34.766Z,9.34
2017-09-24T06:08:02.330Z,9.40
2017-09-24T06:10:29.902Z,9.48
2017-09-24T06:12:57.582Z,9.57
2017-09-24T06:15:25.164Z,9.70
2017-09-24T06:17:52.738Z,9.85
2017-09-24T06:20:20.439Z,9.95
2017-09-24T06:22:48.385Z,10.04
2017-09-24T06:25:15.940Z,10.07
2017-09-24T06:27:43.549Z,10.08
2017-09-24T06:30:11.141Z,10.08
2017-09-24T06:32:38.697Z,10.09
2017-09-24T06:35:06.621Z,10.06
2017-09-24T06:37:34.309Z,10.10
2017-09-24T06:40:01.886Z,10.15
2017-09-24T06:42:29.470Z,10.20
2017-09-24T06:44:57.156Z,10.22
2017-09-24T06:47:24.817Z,10.24
2017-09-24T06:49:52.370Z,10.24
2017-09-24T06:52:19.968Z,10.25
2017-09-24T06:54:47.525Z,10.32
2017-09-24T06:57:15.124Z,10.37
2017-09-24T06:59:42.711Z,10.43
2017-09-24T07:02:10.303Z,10.48
2017-09-24T07:04:37.873Z,10.56
2017-09-24T07:07:07.014Z,10.64
2017-09-24T07:09:34.740Z,10.72
2017-09-24T07:12:02.333Z,10.80
2017-09-24T07:14:30.596Z,10.88
2017-09-24T07:16:58.173Z,10.97
2017-09-24T07:19:26.061Z,11.09
2017-09-24T07:21:54.156Z,11.15
2017-09-24T07:24:21.714Z,11.23
2017-09-24T07:26:49.325Z,11.34
2017-09-24T07:29:16.872Z,11.46
2017-09-24T07:31:44.461Z,11.55
2017-09-24T07:34:12.003Z,11.65
2017-09-24T07:36:39.618Z,11.75
2017-09-24T07:39:07.234Z,11.83
2017-09-24T07:41:36.310Z,11.93
2017-09-24T07:44:03.932Z,12.00
2017-09-24T07:46:31.481Z,12.10
2017-09-24T07:48:59.061Z,12.23
2017-09-24T07:51:26.744Z,12.39
2017-09-24T07:53:54.344Z,12.55
2017-09-24T07:56:22.051Z,12.68
2017-09-24T07:58:51.033Z,12.83
2017-09-24T08:01:18.593Z,12.98
2017-09-24T08:03:46.183Z,13.11
2017-09-24T08:06:13.731Z,13.28
2017-09-24T08:08:41.546Z,13.43
2017-09-24T08:11:09.164Z,13.44
2017-09-24T08:13:37.351Z,13.64
2017-09-24T08:16:05.308Z,13.78
2017-09-24T08:18:32.876Z,13.95
2017-09-24T08:23:34.839Z,14.06
2017-09-24T08:26:02.419Z,14.13
2017-09-24T08:28:30.439Z,14.24
2017-09-24T08:30:59.580Z,14.35
2017-09-24T08:33:27.177Z,14.48
2017-09-24T08:35:55.084Z,14.61
2017-09-24T08:38:22.739Z,14.69
2017-09-24T08:40:50.441Z,14.73
2017-09-24T08:43:18.036Z,14.74
2017-09-24T08:45:45.854Z,14.64
2017-09-24T08:48:13.801Z,14.65
2017-09-24T08:50:41.641Z,14.73
2017-09-24T08:53:09.236Z,14.81
2017-09-24T08:55:36.821Z,14.85
2017-09-24T08:58:04.422Z,14.89
2017-09-24T09:00:32.008Z,14.99
2017-09-24T09:02:59.621Z,15.13
2017-09-24T09:05:27.243Z,15.19
2017-09-24T09:07:55.196Z,15.25
2017-09-24T09:10:22.906Z,15.34
2017-09-24T09:12:50.463Z,15.37
2017-09-24T09:15:18.064Z,15.43
2017-09-24T09:17:45.654Z,15.49
2017-09-24T09:20:13.258Z,15.52
2017-09-24T09:22:41.876Z,15.62
2017-09-24T09:25:09.442Z,15.70
2017-09-24T09:27:37.413Z,15.73
2017-09-24T09:30:05.698Z,15.80
2017-09-24T09:35:17.198Z,15.95
2017-09-24T09:37:45.471Z,16.03
2017-09-24T09:40:13.070Z,16.11
2017-09-24T09:42:40.682Z,16.19
2017-09-24T09:45:20.255Z,16.32
2017-09-24T09:47:48.822Z,16.38
2017-09-24T09:50:16.417Z,16.44
2017-09-24T09:52:44.006Z,16.45
2017-09-24T09:55:12.108Z,16.52
2017-09-24T09:57:39.688Z,16.57
2017-09-24T10:00:07.251Z,16.67
2017-09-24T10:02:36.123Z,16.63
2017-09-24T10:05:03.666Z,16.70
2017-09-24T10:10:35.411Z,16.92
2017-09-24T10:13:03.274Z,16.88
2017-09-24T10:15:30.846Z,16.96
2017-09-24T10:17:58.417Z,17.05
2017-09-24T10:20:27.458Z,16.99
2017-09-24T10:22:55.112Z,16.92
2017-09-24T10:25:22.979Z,16.90
2017-09-24T10:27:50.572Z,16.88
2017-09-24T10:30:30.497Z,16.87
2017-09-24T10:32:59.715Z,16.92
2017-09-24T10:35:27.305Z,17.04
2017-09-24T10:37:55.060Z,17.04
2017-09-24T10:40:22.615Z,17.07
2017-09-24T10:42:50.489Z,17.10
2017-09-24T10:45:18.078Z,17.15
2017-09-24T10:47:45.724Z,17.20
2017-09-24T10:50:13.626Z,17.26
2017-09-24T10:52:41.222Z,17.24
2017-09-24T10:55:08.815Z,17.22
2017-09-24T10:57:37.690Z,17.28
2017-09-24T11:00:05.286Z,17.30
2017-09-24T11:02:32.853Z,17.32
2017-09-24T11:05:00.830Z,17.36
2017-09-24T11:07:28.410Z,17.39
2017-09-24T11:09:55.986Z,17.41
2017-09-24T11:12:23.949Z,17.41
2017-09-24T11:14:51.528Z,17.36
2017-09-24T11:17:19.096Z,17.32
2017-09-24T11:19:46.681Z,17.30
2017-09-24T11:22:14.350Z,17.31
2017-09-24T11:24:42.330Z,17.36
2017-09-24T11:27:09.999Z,17.48
2017-09-24T11:29:37.556Z,17.66
2017-09-24T11:32:06.052Z,17.87
2017-09-24T11:34:35.322Z,18.05
2017-09-24T11:37:02.963Z,18.10
2017-09-24T11:39:30.957Z,18.12
2017-09-24T11:41:58.528Z,18.17
2017-09-24T11:44:26.452Z,18.30
2017-09-24T11:46:54.115Z,18.36
2017-09-24T11:49:21.668Z,18.38
2017-09-24T11:51:49.590Z,18.34
2017-09-24T11:54:17.502Z,18.34
2017-09-24T11:56:45.586Z,18.41
2017-09-24T11:59:13.231Z,18.44
2017-09-24T12:01:40.791Z,18.27
2017-09-24T12:04:08.721Z,18.20
2017-09-24T12:06:36.338Z,18.09
2017-09-24T12:09:03.879Z,18.05
2017-09-24T12:11:31.488Z,18.16
2017-09-24T12:13:59.086Z,18.12
2017-09-24T12:16:27.094Z,18.07
2017-09-24T12:18:54.667Z,17.98
2017-09-24T12:21:22.194Z,17.90
2017-09-24T12:23:51.722Z,17.87
2017-09-24T12:26:19.313Z,17.99
2017-09-24T12:28:46.922Z,18.14
2017-09-24T12:31:14.508Z,18.41
2017-09-24T12:33:42.429Z,18.68
2017-09-24T12:36:10.010Z,18.87
2017-09-24T12:38:37.652Z,19.02
2017-09-24T12:41:05.303Z,19.22
2017-09-24T12:43:32.920Z,19.43
2017-09-24T12:46:00.524Z,19.54
2017-09-24T12:48:28.086Z,19.48
2017-09-24T12:50:56.082Z,19.52
2017-09-24T12:53:23.615Z,19.54
2017-09-24T12:55:51.199Z,19.51
2017-09-24T12:58:18.804Z,19.47
2017-09-24T13:00:46.515Z,19.32
2017-09-24T13:03:14.472Z,19.37
2017-09-24T13:05:42.039Z,19.42
2017-09-24T13:08:09.636Z,19.50
2017-09-24T13:10:37.238Z,19.56
2017-09-24T13:13:04.828Z,19.64
2017-09-24T13:15:32.872Z,19.72
2017-09-24T13:18:00.474Z,19.84
2017-09-24T13:20:28.025Z,19.93
2017-09-24T13:22:55.982Z,19.86
2017-09-24T13:25:23.534Z,19.98
2017-09-24T13:27:51.091Z,20.02
2017-09-24T13:30:18.706Z,20.08
2017-09-24T13:32:46.345Z,20.12
2017-09-24T13:35:14.304Z,20.27
2017-09-24T13:37:41.862Z,20.44
2017-09-24T13:40:09.438Z,20.57
2017-09-24T13:42:37.057Z,20.64
2017-09-24T13:45:04.642Z,20.60
2017-09-24T13:47:32.218Z,20.52
2017-09-24T13:49:59.810Z,20.38
2017-09-24T13:52:27.743Z,20.30
2017-09-24T13:54:55.588Z,20.11
2017-09-24T13:57:23.164Z,19.89
2017-09-24T13:59:51.119Z,19.74
2017-09-24T14:02:18.694Z,19.70
2017-09-24T14:04:46.273Z,19.75
2017-09-24T14:07:13.879Z,19.91
2017-09-24T14:09:41.445Z,20.05
2017-09-24T14:12:09.341Z,20.20
2017-09-24T14:14:36.926Z,20.05
2017-09-24T14:17:04.513Z,19.85
2017-09-24T14:19:32.230Z,19.68
2017-09-24T14:22:01.021Z,19.54
2017-09-24T14:24:29.709Z,19.40
2017-09-24T14:26:57.261Z,19.32
2017-09-24T14:29:25.204Z,19.25
2017-09-24T14:31:52.777Z,19.21
2017-09-24T14:34:20.372Z,19.13
2017-09-24T14:36:47.961Z,19.03
2017-09-24T14:39:15.956Z,19.00
2017-09-24T14:41:43.860Z,18.93
2017-09-24T14:44:11.463Z,18.94
2017-09-24T14:46:39.025Z,18.92
2017-09-24T14:49:07.946Z,18.90
2017-09-24T14:51:35.903Z,18.91
2017-09-24T14:54:03.468Z,18.89
2017-09-24T14:56:31.088Z,18.83
2017-09-24T14:58:58.698Z,18.77
2017-09-24T15:01:26.272Z,18.70
2017-09-24T15:03:53.886Z,18.66
2017-09-24T15:06:21.756Z,18.61
2017-09-24T15:08:49.319Z,18.57
2017-09-24T15:11:16.965Z,18.49
2017-09-24T15:13:44.989Z,18.44
2017-09-24T15:16:12.683Z,18.40
2017-09-24T15:18:40.357Z,18.35
2017-09-24T15:21:07.945Z,18.28
2017-09-24T15:23:35.530Z,18.26
2017-09-24T15:26:03.807Z,18.20
2017-09-24T15:28:33.041Z,18.18
2017-09-24T15:31:02.122Z,18.20
2017-09-24T15:33:29.775Z,18.12
2017-09-24T15:35:57.367Z,18.10
2017-09-24T15:38:24.943Z,18.09
2017-09-24T15:40:52.532Z,18.07
2017-09-24T15:43:20.113Z,18.06
2017-09-24T15:45:49.290Z,18.03
2017-09-24T15:48:16.870Z,18.02
2017-09-24T15:50:45.375Z,18.02
2017-09-24T15:53:12.986Z,18.00
2017-09-24T15:55:40.986Z,17.97
2017-09-24T15:58:08.925Z,17.94
2017-09-24T16:00:36.617Z,17.92
2017-09-24T16:03:04.604Z,17.85
2017-09-24T16:05:32.163Z,17.82
2017-09-24T16:07:59.758Z,17.76
2017-09-24T16:10:27.378Z,17.71
2017-09-24T16:12:55.482Z,17.70
2017-09-24T16:15:23.066Z,17.67
2017-09-24T16:17:50.903Z,17.64
2017-09-24T16:20:18.476Z,17.62
2017-09-24T16:22:46.143Z,17.59
2017-09-24T16:25:13.851Z,17.53
2017-09-24T16:27:41.926Z,17.46
2017-09-24T16:30:09.497Z,17.39
2017-09-24T16:32:37.044Z,17.32
2017-09-24T16:35:04.635Z,17.26
2017-09-24T16:37:32.209Z,17.21
2017-09-24T16:39:59.833Z,17.15
2017-09-24T16:42:27.441Z,17.09
2017-09-24T16:44:55.105Z,17.02
2017-09-24T16:47:22.676Z,16.97
2017-09-24T16:49:50.626Z,16.90
2017-09-24T16:52:18.195Z,16.82
2017-09-24T16:54:45.778Z,16.74
2017-09-24T16:57:13.384Z,16.68
2017-09-24T16:59:41.617Z,16.62
2017-09-24T17:02:09.613Z,16.53
2017-09-24T17:04:37.191Z,16.46
2017-09-24T17:07:04.805Z,16.39
2017-09-24T17:09:32.387Z,16.31
2017-09-24T17:12:00.041Z,16.22
2017-09-24T17:14:28.003Z,16.16
2017-09-24T17:16:55.620Z,16.09
2017-09-24T17:19:23.228Z,16.02
2017-09-24T17:21:51.115Z,15.94
2017-09-24T17:24:18.711Z,15.84
2017-09-24T17:26:46.969Z,15.76
2017-09-24T17:29:14.567Z,15.72
2017-09-24T17:31:42.558Z,15.68
2017-09-24T17:34:10.126Z,15.62
2017-09-24T17:36:37.708Z,15.56
2017-09-24T17:39:07.166Z,15.52
2017-09-24T17:41:34.773Z,15.47
2017-09-24T17:44:03.885Z,15.42
2017-09-24T17:46:31.482Z,15.35
2017-09-24T17:48:59.038Z,15.28
2017-09-24T17:51:26.666Z,15.21
2017-09-24T17:53:54.243Z,15.14
2017-09-24T17:56:21.810Z,15.07
2017-09-24T17:58:49.480Z,15.00
2017-09-24T18:01:17.124Z,14.94
2017-09-24T18:03:44.699Z,14.88
2017-09-24T18:06:12.588Z,14.83
2017-09-24T18:08:40.174Z,14.78
2017-09-24T18:11:07.898Z,14.72
2017-09-24T18:13:35.513Z,14.65
2017-09-24T18:16:04.229Z,14.59
2017-09-24T18:18:31.893Z,14.53
2017-09-24T18:20:59.486Z,14.49
2017-09-24T18:23:27.079Z,14.47
2017-09-24T18:25:54.715Z,14.42
2017-09-24T18:28:22.323Z,14.38
2017-09-24T18:30:49.918Z,14.33
2017-09-24T18:33:17.612Z,14.31
2017-09-24T18:35:45.192Z,14.28
2017-09-24T18:38:13.164Z,14.24
2017-09-24T18:40:41.212Z,14.17
2017-09-24T18:43:09.754Z,14.11
2017-09-24T18:45:37.384Z,14.05
2017-09-24T18:48:04.945Z,13.99
2017-09-24T18:50:32.538Z,13.95
2017-09-24T18:53:00.136Z,13.90
2017-09-24T18:55:27.688Z,13.85
2017-09-24T18:57:56.394Z,13.79
2017-09-24T19:00:24.276Z,13.75
2017-09-24T19:02:51.844Z,13.69
2017-09-24T19:05:19.455Z,13.63
2017-09-24T19:07:47.099Z,13.56
2017-09-24T19:10:15.051Z,13.49
2017-09-24T19:12:42.657Z,13.47
2017-09-24T19:15:10.254Z,13.42
2017-09-24T19:17:37.865Z,13.37
2017-09-24T19:20:05.428Z,13.33
2017-09-24T19:22:33.024Z,13.26
2017-09-24T19:25:01.225Z,13.20
2017-09-24T19:27:28.820Z,13.16
2017-09-24T19:29:56.371Z,13.11
2017-09-24T19:32:24.016Z,13.06
2017-09-24T19:34:52.056Z,13.03
2017-09-24T19:37:20.373Z,12.98
2017-09-24T19:39:48.401Z,12.95
2017-09-24T19:42:16.006Z,12.89
2017-09-24T19:44:43.615Z,12.84
2017-09-24T19:47:11.236Z,12.80
2017-09-24T19:49:38.861Z,12.76
2017-09-24T19:52:06.462Z,12.73
2017-09-24T19:54:34.786Z,12.71
2017-09-24T19:57:02.429Z,12.69
2017-09-24T19:59:30.037Z,12.65
2017-09-24T20:01:58.006Z,12.62
2017-09-24T20:04:26.452Z,12.61
2017-09-24T20:06:54.516Z,12.58
2017-09-24T20:09:22.068Z,12.51
2017-09-24T20:11:55.330Z,12.49
2017-09-24T20:14:22.901Z,12.49
2017-09-24T20:16:51.010Z,12.50
2017-09-24T20:19:18.616Z,12.49
2017-09-24T20:21:46.182Z,12.48
2017-09-24T20:24:13.818Z,12.43
2017-09-24T20:26:42.788Z,12.37
2017-09-24T20:29:10.364Z,12.34
2017-09-24T20:31:37.946Z,12.33
2017-09-24T20:34:06.232Z,12.31
2017-09-24T20:36:34.083Z,12.29
2017-09-24T20:39:02.031Z,12.28
2017-09-24T20:41:29.620Z,12.27
2017-09-24T20:43:57.197Z,12.22
2017-09-24T20:46:24.806Z,12.15
2017-09-24T20:48:52.403Z,12.11
2017-09-24T20:51:20.019Z,12.10
2017-09-24T20:53:47.572Z,12.10
2017-09-24T20:56:15.456Z,12.11
2017-09-24T20:58:43.028Z,12.09
2017-09-24T21:01:10.611Z,12.05
2017-09-24T21:03:38.240Z,12.03
2017-09-24T21:06:05.819Z,12.00
2017-09-24T21:08:33.761Z,11.94
2017-09-24T21:11:01.334Z,11.89
2017-09-24T21:13:28.916Z,11.86
2017-09-24T21:15:56.526Z,11.85
2017-09-24T21:18:24.142Z,11.84
2017-09-24T21:20:51.729Z,11.81
2017-09-24T21:23:20.691Z,11.73
2017-09-24T21:25:48.908Z,11.68
2017-09-24T21:28:16.502Z,11.65
2017-09-24T21:30:44.438Z,11.62
2017-09-24T21:33:12.047Z,11.56
2017-09-24T21:35:39.620Z,11.52
2017-09-24T21:38:07.223Z,11.50
2017-09-24T21:40:35.112Z,11.47
2017-09-24T21:43:03.090Z,11.43
2017-09-24T21:45:30.653Z,11.40
2017-09-24T21:47:58.215Z,11.36
2017-09-24T21:50:26.183Z,11.33
2017-09-24T21:52:53.769Z,11.30
2017-09-24T21:55:21.725Z,11.24
2017-09-24T21:57:49.331Z,11.20
2017-09-24T22:00:17.213Z,11.22
2017-09-24T22:02:44.770Z,11.23
2017-09-24T22:05:12.332Z,11.23
2017-09-24T22:07:39.916Z,11.21
2017-09-24T22:10:07.808Z,11.20
2017-09-24T22:12:35.403Z,11.19
2017-09-24T22:15:02.977Z,11.15
2017-09-24T22:17:30.885Z,11.14
2017-09-24T22:20:03.150Z,11.10
2017-09-24T22:22:31.127Z,11.08
2017-09-24T22:24:58.713Z,11.04
2017-09-24T22:27:26.349Z,11.01
2017-09-24T22:29:54.313Z,10.95
2017-09-24T22:32:21.867Z,10.93
2017-09-24T22:34:49.848Z,10.92
2017-09-24T22:37:17.402Z,10.90
2017-09-24T22:39:44.973Z,10.80
2017-09-24T22:42:12.657Z,10.77
2017-09-24T22:44:40.609Z,10.78
2017-09-24T22:47:08.201Z,10.77
2017-09-24T22:49:35.812Z,10.77
2017-09-24T22:52:03.406Z,10.77
2017-09-24T22:54:30.996Z,10.76
2017-09-24T22:56:58.897Z,10.72
2017-09-24T22:59:26.465Z,10.72
2017-09-24T23:01:54.022Z,10.70
2017-09-24T23:04:21.611Z,10.69
2017-09-24T23:06:49.197Z,10.67
2017-09-24T23:09:16.805Z,10.62
2017-09-24T23:11:44.794Z,10.53
2017-09-24T23:14:12.385Z,10.44
2017-09-24T23:16:40.687Z,10.41
2017-09-24T23:19:08.310Z,10.38
2017-09-24T23:21:38.747Z,10.39
2017-09-24T23:24:07.307Z,10.38
2017-09-24T23:26:35.530Z,10.36
2017-09-24T23:29:03.494Z,10.33
2017-09-24T23:31:31.170Z,10.29
2017-09-24T23:33:59.797Z,10.25
2017-09-24T23:36:27.712Z,10.24
2017-09-24T23:38:55.989Z,10.20
2017-09-24T23:41:23.553Z,10.18
2017-09-24T23:43:51.307Z,10.14
2017-09-24T23:46:20.253Z,10.11
2017-09-24T23:48:48.514Z,10.04
2017-09-24T23:51:16.904Z,10.01
2017-09-24T23:53:45.969Z,9.97
2017-09-24T23:56:13.569Z,9.94
2017-09-24T23:58:41.141Z,9.94
